NCAR-RAP Real-Time Weather Data

Output produced by METARs form (23 June 2021  09:06 UTC)
found at http://weather.rap.ucar.edu/surface/
 
CYLJ 230000Z 27014G22KT 15SM FEW075TCU BKN250 27/10 A2941 RMK TCU2CI3 LAST STFD OB/NXT231200UTC SLP961 DENSITY ALT 4000FT
CYLJ 222300Z 27015KT 15SM SCT075 SCT250 28/10 A2941 RMK CU3CI1 CI TR VIA CYXU SLP953 DENSITY ALT 4100FT
CYLJ 222200Z 27012G18KT 15SM FEW065 SCT170 29/13 A2942 RMK CU2AC1 SLP958 DENSITY ALT 4100FT